Aviation Digital Data Service (ADDS)

Output produced by METARs form (0036 UTC 20 August 2017)
found at http://aviationweather.gov/adds/metars/
 
KROC 192328Z 2000/2024 28007KT P6SM VCSH SCT090 BKN120 
     FM200100 27006KT P6SM SCT050 BKN110 
     FM200500 27006KT P6SM SCT060 
     FM201700 24012G18KT P6SM SCT050